Main page


Airports :

Stornoway, Scotland

Stornoway Airport

latitude: 58-13N, longitude: 006-19W, elevation: 9 m

Current weather observation

The report was made 20 minutes ago, at 17:20 UTC
Wind 13 kt from the South/Southwest
Temperature 6°C
Humidity 70%
Pressure 1029 hPa
Visibility 10 km or more
Few clouds at a height of 2900 ft
Scattered clouds at a height of 4100 ft

METAR: EGPO 201720Z 21013KT 9999 FEW029 SCT041 06/01 Q1029

Time: 17:40 (17:40 UTC)


The report was made 42 minutes ago, at 16:58 UTC
Forecast valid from 20 at 18 UTC to 21 at 03 UTC
Wind 10 kt from the Southwest
Visibility 10 km or more
Scattered clouds at a height of 3500 ft
Probability 30% :
from 20 at 18 UTC to 20 at 21 UTC
Wind 15 kt from the Southwest with gusts up to 25 kt
Visibility: 7000 m
light rain showers

TAF: EGPO 201658Z 2018/2103 23010KT 9999 SCT035 PROB30 TEMPO 2018/2021 22015G25KT 7000 -SHRA

Weather observations and forecasts of more than 4000 airports (METAR and TAF reports).

The available stations are represented by yellow and red dots on the map.

Hover mouse over dot to see the name of the station.

Then click to see weather observations and forecasts.

To change the map : click on the green buttons with a black cross to zoom in, on the green button with a dash to zoom out, or on the green arrows for adjacent maps.